Time;durP1;ratioP1;P1;durP2;ratioP2;P2;SDS_P1;SDS_P2;PMS_P1;PMS_P2;Temp;Humidity;BMP_temperature;BMP_pressure;BME280_temperature;BME280_humidity;BME280_pressure;Samples;Min_cycle;Max_cycle;Signal;HPM_P1;HPM_P2
2021/03/30 00:04:11;;;;;;;6.90;2.57;;;;;;;;;;10561899;28;20555;-69
2021/03/30 00:09:13;;;;;;;4.77;2.40;;;;;;;;;;10576891;27;20215;-70
2021/03/30 00:14:15;;;;;;;6.10;2.27;;;;;;;;;;10569746;27;20730;-70
2021/03/30 00:19:17;;;;;;;7.23;2.50;;;;;;;;;;10573692;28;20237;-70
2021/03/30 00:24:19;;;;;;;5.67;2.57;;;;;;;;;;10558351;28;20301;-70
2021/03/30 00:29:21;;;;;;;9.43;2.47;;;;;;;;;;10553539;28;20249;-71
2021/03/30 00:34:22;;;;;;;6.83;2.50;;;;;;;;;;10561756;27;20211;-70
2021/03/30 00:39:25;;;;;;;5.83;2.23;;;;;;;;;;10581568;27;20520;-70
2021/03/30 00:44:27;;;;;;;7.23;2.60;;;;;;;;;;10586797;27;20346;-69
2021/03/30 00:49:28;;;;;;;7.20;2.63;;;;;;;;;;10584018;27;20631;-71
2021/03/30 00:54:31;;;;;;;5.80;2.27;;;;;;;;;;10586132;27;20218;-71
2021/03/30 00:59:33;;;;;;;6.97;2.50;;;;;;;;;;10561095;27;20260;-70
2021/03/30 01:04:34;;;;;;;5.60;2.40;;;;;;;;;;10586285;27;20206;-71
2021/03/30 01:09:41;;;;;;;6.40;2.57;;;;;;;;;;10566695;27;20203;-71
2021/03/30 01:14:46;;;;;;;5.77;2.53;;;;;;;;;;10579735;27;21099;-70
2021/03/30 01:20:06;;;;;;;6.10;2.30;;;;;;;;;;10562585;27;20211;-71
2021/03/30 01:25:09;;;;;;;6.40;2.53;;;;;;;;;;10557093;27;20283;-70
2021/03/30 01:30:14;;;;;;;6.27;2.77;;;;;;;;;;10554315;28;20227;-70
2021/03/30 01:35:17;;;;;;;5.73;2.40;;;;;;;;;;10559481;28;20212;-71
2021/03/30 01:40:20;;;;;;;5.67;2.30;;;;;;;;;;10573911;27;20203;-71
2021/03/30 01:45:23;;;;;;;7.07;2.60;;;;;;;;;;10559814;27;20211;-71
2021/03/30 01:50:25;;;;;;;4.57;2.03;;;;;;;;;;10580023;27;20194;-72
2021/03/30 01:55:28;;;;;;;6.83;2.60;;;;;;;;;;10576255;27;20218;-69
2021/03/30 02:00:32;;;;;;;3.93;2.07;;;;;;;;;;10551131;28;20191;-70
2021/03/30 02:05:34;;;;;;;6.47;2.40;;;;;;;;;;10579652;27;20653;-71
2021/03/30 02:10:43;;;;;;;5.10;2.17;;;;;;;;;;10578963;27;20217;-71
2021/03/30 02:15:45;;;;;;;4.77;2.27;;;;;;;;;;10577034;27;20211;-71
2021/03/30 02:20:50;;;;;;;5.53;1.97;;;;;;;;;;10569741;27;20227;-71
2021/03/30 02:25:54;;;;;;;6.77;2.10;;;;;;;;;;10571789;27;20235;-68
2021/03/30 02:30:57;;;;;;;4.87;2.10;;;;;;;;;;10545579;27;20396;-70
2021/03/30 02:35:58;;;;;;;5.93;2.10;;;;;;;;;;10598406;27;20217;-71
2021/03/30 02:41:00;;;;;;;6.67;2.27;;;;;;;;;;10553933;27;20198;-71
2021/03/30 02:46:08;;;;;;;5.23;2.20;;;;;;;;;;10567295;27;20215;-71
2021/03/30 02:51:09;;;;;;;7.57;2.17;;;;;;;;;;10563861;27;20332;-71
2021/03/30 02:56:11;;;;;;;5.37;2.03;;;;;;;;;;10582169;27;20206;-72
2021/03/30 03:01:15;;;;;;;5.47;2.27;;;;;;;;;;10551778;27;20199;-72
2021/03/30 03:06:16;;;;;;;5.83;2.33;;;;;;;;;;10570012;27;20587;-70
2021/03/30 03:11:18;;;;;;;4.10;2.10;;;;;;;;;;10551999;27;20187;-69
2021/03/30 03:16:22;;;;;;;5.40;2.30;;;;;;;;;;10560106;27;20203;-72
2021/03/30 03:21:24;;;;;;;5.13;2.40;;;;;;;;;;10570192;27;20219;-71
2021/03/30 03:26:26;;;;;;;5.63;2.40;;;;;;;;;;10572010;27;20659;-69
2021/03/30 03:31:29;;;;;;;5.93;2.30;;;;;;;;;;10545382;28;20198;-71
2021/03/30 03:36:36;;;;;;;6.67;2.60;;;;;;;;;;10567671;27;20860;-69
2021/03/30 03:41:38;;;;;;;6.23;2.70;;;;;;;;;;10551845;27;20716;-69
2021/03/30 03:46:41;;;;;;;6.33;2.83;;;;;;;;;;10582237;27;20237;-71
2021/03/30 03:51:44;;;;;;;5.23;2.60;;;;;;;;;;10572689;27;20274;-71
2021/03/30 03:56:46;;;;;;;6.77;2.67;;;;;;;;;;10559663;27;20218;-71
2021/03/30 04:01:52;;;;;;;7.83;2.70;;;;;;;;;;10553990;27;20275;-71
2021/03/30 04:06:55;;;;;;;7.70;2.53;;;;;;;;;;10578478;27;20268;-71
2021/03/30 04:11:59;;;;;;;6.47;2.87;;;;;;;;;;10561582;28;20203;-70
2021/03/30 04:17:05;;;;;;;6.40;3.00;;;;;;;;;;10574100;28;20299;-70
2021/03/30 04:22:07;;;;;;;7.93;3.40;;;;;;;;;;10575763;27;20202;-70
2021/03/30 04:27:09;;;;;;;5.70;2.60;;;;;;;;;;10569305;28;20274;-70
2021/03/30 04:32:12;;;;;;;10.37;2.83;;;;;;;;;;10558569;28;20198;-70
2021/03/30 04:37:13;;;;;;;7.97;2.97;;;;;;;;;;10555224;28;20285;-71
2021/03/30 04:42:15;;;;;;;6.87;2.70;;;;;;;;;;10564816;28;20670;-70
2021/03/30 04:47:18;;;;;;;8.87;3.20;;;;;;;;;;10569004;28;20199;-71
2021/03/30 04:52:19;;;;;;;8.20;3.47;;;;;;;;;;10555057;28;20562;-70
2021/03/30 04:57:21;;;;;;;7.60;3.57;;;;;;;;;;10568872;28;20207;-71
2021/03/30 05:02:24;;;;;;;7.67;3.30;;;;;;;;;;10549328;28;20599;-71
2021/03/30 05:07:25;;;;;;;7.20;3.23;;;;;;;;;;10547450;28;20183;-70
2021/03/30 05:12:27;;;;;;;10.90;4.20;;;;;;;;;;10566216;28;20226;-69
2021/03/30 05:17:29;;;;;;;9.73;4.10;;;;;;;;;;10568065;28;20214;-70
2021/03/30 05:22:31;;;;;;;11.00;4.07;;;;;;;;;;10573731;27;20245;-69
2021/03/30 05:27:33;;;;;;;10.00;3.47;;;;;;;;;;10575706;27;20693;-72
2021/03/30 05:32:35;;;;;;;11.87;3.90;;;;;;;;;;10566516;27;20265;-69
2021/03/30 05:37:38;;;;;;;10.27;3.37;;;;;;;;;;10558765;28;20207;-70
2021/03/30 05:42:43;;;;;;;11.10;3.23;;;;;;;;;;10552926;27;20251;-71
2021/03/30 05:47:45;;;;;;;7.80;3.50;;;;;;;;;;10557133;27;20219;-70
2021/03/30 05:52:51;;;;;;;12.57;3.67;;;;;;;;;;10542576;27;20283;-71
2021/03/30 05:57:54;;;;;;;10.67;3.30;;;;;;;;;;10568896;27;20210;-70
2021/03/30 06:02:58;;;;;;;9.83;3.30;;;;;;;;;;10571160;27;20211;-69
2021/03/30 06:08:07;;;;;;;9.60;3.17;;;;;;;;;;10561270;27;20350;-70
2021/03/30 06:13:08;;;;;;;7.80;3.07;;;;;;;;;;10572160;27;20285;-70
2021/03/30 06:18:19;;;;;;;9.33;3.63;;;;;;;;;;10569951;27;20689;-71
2021/03/30 06:23:26;;;;;;;9.53;3.83;;;;;;;;;;10560339;27;20408;-70
2021/03/30 06:28:29;;;;;;;11.37;3.77;;;;;;;;;;10591473;27;20643;-71
2021/03/30 06:33:33;;;;;;;12.70;4.30;;;;;;;;;;10548552;27;21286;-71
2021/03/30 06:38:55;;;;;;;10.57;4.10;;;;;;;;;;10552592;27;20210;-70
2021/03/30 06:44:25;;;;;;;9.73;3.80;;;;;;;;;;10567839;27;20229;-70
2021/03/30 06:49:29;;;;;;;9.90;4.00;;;;;;;;;;10557920;27;20196;-70
2021/03/30 06:54:30;;;;;;;10.07;3.80;;;;;;;;;;10569982;27;20627;-70
2021/03/30 06:59:41;;;;;;;12.60;4.43;;;;;;;;;;10558143;27;20203;-71
2021/03/30 07:04:53;;;;;;;11.73;4.67;;;;;;;;;;10559034;27;20306;-71
2021/03/30 07:09:55;;;;;;;10.97;4.97;;;;;;;;;;10561439;27;20190;-71
2021/03/30 07:14:57;;;;;;;11.93;4.75;;;;;;;;;;10552288;27;20214;-70
2021/03/30 07:20:07;;;;;;;14.18;5.05;;;;;;;;;;10577272;27;20210;-70
2021/03/30 07:25:12;;;;;;;10.80;4.60;;;;;;;;;;10571298;27;20218;-71
2021/03/30 07:30:14;;;;;;;12.82;5.93;;;;;;;;;;10553786;27;20244;-72
2021/03/30 07:35:17;;;;;;;13.45;5.55;;;;;;;;;;10573284;27;20203;-70
2021/03/30 07:40:20;;;;;;;12.10;5.53;;;;;;;;;;10565475;27;20574;-71
2021/03/30 07:45:22;;;;;;;11.65;5.53;;;;;;;;;;10576943;27;20226;-69
2021/03/30 07:50:45;;;;;;;12.32;5.30;;;;;;;;;;10542175;28;20183;-70
2021/03/30 07:55:47;;;;;;;14.73;5.75;;;;;;;;;;10551617;28;20221;-70
2021/03/30 08:00:55;;;;;;;11.30;5.03;;;;;;;;;;10541213;27;20207;-70
2021/03/30 08:06:08;;;;;;;12.77;5.32;;;;;;;;;;10546092;28;20219;-71
2021/03/30 08:11:10;;;;;;;13.02;5.47;;;;;;;;;;10557295;27;20199;-71
2021/03/30 08:16:12;;;;;;;11.15;5.75;;;;;;;;;;10555325;28;20317;-71
2021/03/30 08:21:15;;;;;;;14.38;6.18;;;;;;;;;;10550861;28;20674;-72
2021/03/30 08:31:45;;;;;;;12.02;6.70;;;;;;;;;;10568845;28;20207;-70
2021/03/30 08:36:49;;;;;;;18.67;8.65;;;;;;;;;;10557412;28;20224;-71
2021/03/30 08:41:55;;;;;;;15.60;7.80;;;;;;;;;;10565284;28;20711;-69
2021/03/30 08:46:57;;;;;;;16.92;7.43;;;;;;;;;;10566511;28;20226;-71
2021/03/30 08:52:03;;;;;;;13.88;7.25;;;;;;;;;;10569806;27;20401;-70
2021/03/30 08:57:06;;;;;;;15.50;7.47;;;;;;;;;;10574465;27;20213;-70
2021/03/30 09:02:08;;;;;;;15.82;6.78;;;;;;;;;;10571614;27;23007;-71
2021/03/30 09:07:11;;;;;;;13.13;6.40;;;;;;;;;;10580411;27;20207;-70
2021/03/30 09:12:20;;;;;;;9.13;5.68;;;;;;;;;;10573487;27;20183;-71
2021/03/30 09:17:25;;;;;;;13.18;5.63;;;;;;;;;;10571123;27;20293;-71
2021/03/30 09:22:45;;;;;;;12.32;5.97;;;;;;;;;;10576948;27;20277;-71
2021/03/30 09:27:47;;;;;;;15.82;6.35;;;;;;;;;;10580836;27;20217;-71
2021/03/30 09:32:49;;;;;;;13.23;7.97;;;;;;;;;;10572427;27;20293;-71
2021/03/30 09:37:53;;;;;;;12.18;5.38;;;;;;;;;;10579069;27;20182;-72
2021/03/30 09:42:59;;;;;;;10.75;5.00;;;;;;;;;;10562886;28;20223;-72
2021/03/30 09:48:03;;;;;;;10.48;5.47;;;;;;;;;;10564671;27;20217;-72
2021/03/30 09:53:07;;;;;;;12.35;6.85;;;;;;;;;;10556923;27;20303;-72
2021/03/30 09:58:10;;;;;;;9.40;5.65;;;;;;;;;;10547926;28;20286;-70
2021/03/30 10:03:12;;;;;;;8.23;5.72;;;;;;;;;;10558000;27;20233;-71
2021/03/30 10:08:19;;;;;;;10.27;5.70;;;;;;;;;;10547868;27;20681;-70
2021/03/30 10:13:23;;;;;;;8.07;6.15;;;;;;;;;;10574171;27;20354;-71
2021/03/30 10:18:27;;;;;;;10.50;6.50;;;;;;;;;;10572924;27;20270;-72
2021/03/30 10:23:33;;;;;;;9.20;7.10;;;;;;;;;;10556433;27;20234;-72
2021/03/30 10:28:52;;;;;;;9.75;6.90;;;;;;;;;;10570789;27;20217;-71
2021/03/30 10:33:54;;;;;;;10.57;5.97;;;;;;;;;;10563522;27;20210;-69
2021/03/30 10:39:05;;;;;;;9.70;5.60;;;;;;;;;;10570689;27;20187;-71
2021/03/30 10:44:07;;;;;;;9.68;5.70;;;;;;;;;;10574762;27;20231;-70
2021/03/30 10:49:10;;;;;;;11.55;5.53;;;;;;;;;;10579206;27;20310;-70
2021/03/30 10:54:14;;;;;;;10.05;5.25;;;;;;;;;;10569752;27;20314;-72
2021/03/30 10:59:16;;;;;;;9.02;6.00;;;;;;;;;;10570294;27;20260;-70
2021/03/30 11:04:18;;;;;;;9.70;6.25;;;;;;;;;;10555975;27;20318;-69
2021/03/30 11:09:22;;;;;;;8.60;5.70;;;;;;;;;;10566705;27;20690;-70
2021/03/30 11:14:24;;;;;;;9.55;6.60;;;;;;;;;;10568925;27;20207;-71
2021/03/30 11:19:26;;;;;;;10.60;7.25;;;;;;;;;;10567630;27;20191;-72
2021/03/30 11:24:31;;;;;;;9.68;6.90;;;;;;;;;;10564593;28;20223;-70
2021/03/30 11:29:40;;;;;;;10.10;7.15;;;;;;;;;;10541905;27;20212;-71
2021/03/30 11:34:45;;;;;;;12.75;7.75;;;;;;;;;;10559567;27;20507;-71
2021/03/30 11:39:47;;;;;;;10.55;7.38;;;;;;;;;;10549196;27;21164;-72
2021/03/30 11:44:49;;;;;;;9.63;6.32;;;;;;;;;;10564419;27;20309;-71
2021/03/30 11:49:51;;;;;;;9.43;6.25;;;;;;;;;;10567582;27;20226;-72
2021/03/30 11:54:54;;;;;;;9.50;6.47;;;;;;;;;;10537234;27;20979;-72
2021/03/30 11:59:55;;;;;;;10.57;6.00;;;;;;;;;;10569424;27;20219;-72
2021/03/30 12:04:57;;;;;;;10.82;6.22;;;;;;;;;;10564834;27;20215;-72
2021/03/30 12:09:59;;;;;;;9.15;5.53;;;;;;;;;;10558240;27;20215;-72
2021/03/30 12:15:06;;;;;;;9.55;6.38;;;;;;;;;;10555991;28;20305;-71
2021/03/30 12:20:08;;;;;;;12.18;6.35;;;;;;;;;;10566591;27;20191;-72
2021/03/30 12:25:12;;;;;;;9.88;6.18;;;;;;;;;;10550573;28;20254;-71
2021/03/30 12:30:14;;;;;;;7.90;5.10;;;;;;;;;;10567841;28;20219;-72
2021/03/30 12:35:16;;;;;;;10.73;6.20;;;;;;;;;;10562073;28;20287;-72
2021/03/30 12:40:18;;;;;;;10.88;6.70;;;;;;;;;;10565744;28;20218;-70
2021/03/30 12:45:20;;;;;;;10.00;6.32;;;;;;;;;;10564017;28;20682;-71
2021/03/30 12:50:25;;;;;;;10.93;6.63;;;;;;;;;;10562238;28;20261;-70
2021/03/30 12:55:27;;;;;;;9.55;6.00;;;;;;;;;;10562862;28;20221;-72
2021/03/30 13:00:29;;;;;;;10.40;6.35;;;;;;;;;;10572136;28;20183;-71
2021/03/30 13:05:31;;;;;;;10.50;6.60;;;;;;;;;;10547678;28;20211;-71
2021/03/30 13:10:34;;;;;;;9.70;6.65;;;;;;;;;;10568301;28;20298;-71
2021/03/30 13:15:35;;;;;;;10.30;6.57;;;;;;;;;;10552218;28;20223;-71
2021/03/30 13:20:37;;;;;;;11.07;7.30;;;;;;;;;;10577017;28;20226;-70
2021/03/30 13:25:39;;;;;;;10.10;6.95;;;;;;;;;;10546580;28;20223;-72
2021/03/30 13:30:43;;;;;;;10.13;6.72;;;;;;;;;;10566477;28;20579;-71
2021/03/30 13:35:49;;;;;;;11.93;6.40;;;;;;;;;;10566080;28;20622;-71
2021/03/30 13:40:52;;;;;;;9.43;6.18;;;;;;;;;;10568544;28;20221;-71
2021/03/30 13:45:59;;;;;;;10.43;6.30;;;;;;;;;;10571153;28;20226;-70
2021/03/30 13:51:00;;;;;;;12.45;6.10;;;;;;;;;;10568991;28;20214;-71
2021/03/30 13:56:06;;;;;;;12.60;6.25;;;;;;;;;;10565107;27;20621;-69
2021/03/30 14:01:07;;;;;;;9.52;6.50;;;;;;;;;;10579228;27;20631;-70
2021/03/30 14:06:09;;;;;;;12.27;6.63;;;;;;;;;;10578876;27;20748;-71
2021/03/30 14:11:11;;;;;;;10.00;6.28;;;;;;;;;;10576936;27;20723;-71
2021/03/30 14:16:15;;;;;;;11.70;6.15;;;;;;;;;;10570362;28;20287;-72
2021/03/30 14:21:20;;;;;;;11.73;6.82;;;;;;;;;;10577016;27;20681;-68
2021/03/30 14:26:23;;;;;;;10.73;6.32;;;;;;;;;;10573542;27;20847;-71
2021/03/30 14:31:45;;;;;;;13.00;6.07;;;;;;;;;;10571371;27;20187;-71
2021/03/30 14:36:46;;;;;;;11.40;5.78;;;;;;;;;;10565987;27;20595;-71
2021/03/30 14:41:49;;;;;;;10.60;6.53;;;;;;;;;;10567865;27;20237;-72
2021/03/30 14:52:48;;;;;;;11.52;5.80;;;;;;;;;;10580009;27;20207;-71
2021/03/30 14:57:57;;;;;;;12.43;5.60;;;;;;;;;;10565010;28;20186;-72
2021/03/30 15:03:09;;;;;;;12.63;6.50;;;;;;;;;;10569913;27;20208;-72
2021/03/30 15:08:10;;;;;;;9.85;5.80;;;;;;;;;;10562133;27;20221;-70
2021/03/30 15:13:33;;;;;;;10.75;5.88;;;;;;;;;;10560558;27;20210;-71
2021/03/30 15:18:35;;;;;;;9.88;5.80;;;;;;;;;;10574440;27;20191;-70
2021/03/30 15:23:36;;;;;;;10.52;5.65;;;;;;;;;;10564562;27;20210;-71
2021/03/30 15:28:40;;;;;;;9.10;5.60;;;;;;;;;;10572894;27;20234;-71
2021/03/30 15:33:41;;;;;;;9.45;5.63;;;;;;;;;;10571993;27;20240;-71
2021/03/30 15:38:43;;;;;;;9.70;5.70;;;;;;;;;;10566629;27;20193;-71
2021/03/30 15:43:46;;;;;;;11.35;5.60;;;;;;;;;;10572139;27;20222;-70
2021/03/30 15:48:48;;;;;;;10.80;5.20;;;;;;;;;;10570383;27;20309;-72
2021/03/30 15:53:52;;;;;;;11.00;5.03;;;;;;;;;;10565084;27;20225;-72
2021/03/30 15:58:54;;;;;;;10.20;5.85;;;;;;;;;;10568197;27;20274;-71
2021/03/30 16:03:56;;;;;;;11.73;5.93;;;;;;;;;;10579402;27;20211;-72
2021/03/30 16:08:57;;;;;;;10.98;6.05;;;;;;;;;;10562460;27;20215;-70
2021/03/30 16:14:00;;;;;;;12.73;7.00;;;;;;;;;;10574355;27;20246;-72
2021/03/30 16:19:04;;;;;;;11.00;6.20;;;;;;;;;;10574741;27;20178;-73
2021/03/30 16:24:06;;;;;;;12.15;6.53;;;;;;;;;;10582906;27;20210;-69
2021/03/30 16:29:09;;;;;;;12.45;6.22;;;;;;;;;;10578312;28;20229;-72
2021/03/30 16:34:30;;;;;;;11.73;6.85;;;;;;;;;;10574524;28;20206;-71
2021/03/30 16:39:32;;;;;;;12.33;7.73;;;;;;;;;;10543648;28;20434;-72
2021/03/30 16:44:35;;;;;;;11.13;6.40;;;;;;;;;;10576023;28;20225;-72
2021/03/30 16:49:38;;;;;;;12.53;6.10;;;;;;;;;;10569967;28;20219;-71
2021/03/30 16:54:41;;;;;;;11.87;6.73;;;;;;;;;;10568672;28;20210;-71
2021/03/30 16:59:44;;;;;;;11.30;5.87;;;;;;;;;;10568113;28;20263;-70
2021/03/30 17:04:47;;;;;;;11.83;6.43;;;;;;;;;;10564573;28;20701;-71
2021/03/30 17:09:49;;;;;;;11.23;5.57;;;;;;;;;;10553398;28;20243;-70
2021/03/30 17:14:52;;;;;;;11.63;5.33;;;;;;;;;;10550309;27;20210;-72
2021/03/30 17:19:53;;;;;;;11.40;5.17;;;;;;;;;;10565151;27;20195;-72
2021/03/30 17:24:55;;;;;;;11.70;5.27;;;;;;;;;;10574593;27;20219;-71
2021/03/30 17:29:58;;;;;;;10.70;5.23;;;;;;;;;;10579835;27;20575;-72
2021/03/30 17:34:59;;;;;;;11.83;5.50;;;;;;;;;;10572249;27;20215;-74
2021/03/30 17:40:04;;;;;;;12.73;5.93;;;;;;;;;;10545520;28;20590;-73
2021/03/30 17:45:08;;;;;;;11.33;5.40;;;;;;;;;;10562545;27;20291;-71
2021/03/30 17:50:10;;;;;;;10.63;5.30;;;;;;;;;;10574927;27;20234;-71
2021/03/30 17:55:13;;;;;;;12.00;6.60;;;;;;;;;;10572331;27;20211;-72
2021/03/30 18:00:19;;;;;;;14.50;5.20;;;;;;;;;;10563619;27;20532;-72
2021/03/30 18:05:21;;;;;;;12.33;5.47;;;;;;;;;;10575074;27;20334;-70
2021/03/30 18:10:22;;;;;;;12.57;6.00;;;;;;;;;;10574883;27;20576;-72
2021/03/30 18:15:27;;;;;;;12.87;5.60;;;;;;;;;;10571880;27;20641;-72
2021/03/30 18:20:30;;;;;;;11.73;5.97;;;;;;;;;;10571433;27;20187;-71
2021/03/30 18:25:31;;;;;;;11.47;5.43;;;;;;;;;;10541263;28;20288;-71
2021/03/30 18:30:34;;;;;;;11.40;5.60;;;;;;;;;;10570367;28;20328;-73
2021/03/30 18:35:41;;;;;;;12.17;6.20;;;;;;;;;;10552476;28;20267;-72
2021/03/30 18:40:43;;;;;;;14.40;7.00;;;;;;;;;;10554690;27;20263;-72
2021/03/30 18:45:47;;;;;;;10.43;5.77;;;;;;;;;;10568413;28;20287;-73
2021/03/30 18:50:48;;;;;;;12.17;6.13;;;;;;;;;;10548236;28;20225;-71
2021/03/30 18:55:50;;;;;;;12.07;6.23;;;;;;;;;;10571006;27;20643;-70
2021/03/30 19:00:53;;;;;;;14.00;6.20;;;;;;;;;;10567488;27;20194;-72
2021/03/30 19:05:55;;;;;;;13.67;6.53;;;;;;;;;;10569615;28;20214;-72
2021/03/30 19:10:57;;;;;;;12.00;6.20;;;;;;;;;;10564507;27;20329;-70
2021/03/30 19:16:00;;;;;;;11.73;5.90;;;;;;;;;;10551581;27;20299;-68
2021/03/30 19:21:05;;;;;;;11.50;6.07;;;;;;;;;;10571782;27;20304;-67
2021/03/30 19:26:07;;;;;;;15.10;6.63;;;;;;;;;;10567071;27;20298;-69
2021/03/30 19:31:10;;;;;;;14.33;6.20;;;;;;;;;;10545655;28;20238;-69
2021/03/30 19:36:12;;;;;;;13.93;6.60;;;;;;;;;;10565754;27;20215;-70
2021/03/30 19:41:14;;;;;;;12.57;6.00;;;;;;;;;;10548058;28;20252;-69
2021/03/30 19:46:16;;;;;;;11.87;5.90;;;;;;;;;;10580248;27;20234;-69
2021/03/30 19:51:21;;;;;;;13.53;6.10;;;;;;;;;;10563954;27;20210;-69
2021/03/30 19:56:23;;;;;;;12.43;6.20;;;;;;;;;;10548764;28;20219;-69
2021/03/30 20:01:26;;;;;;;14.10;7.03;;;;;;;;;;10582965;27;20194;-70
2021/03/30 20:06:29;;;;;;;14.20;6.03;;;;;;;;;;10579433;27;20207;-71
2021/03/30 20:11:30;;;;;;;13.97;6.60;;;;;;;;;;10596429;27;20218;-70
2021/03/30 20:16:33;;;;;;;13.33;6.40;;;;;;;;;;10601346;28;20231;-70
2021/03/30 20:21:40;;;;;;;11.07;5.93;;;;;;;;;;10600064;27;20290;-69
2021/03/30 20:26:42;;;;;;;13.90;6.80;;;;;;;;;;10585231;28;20280;-70
2021/03/30 20:31:44;;;;;;;12.13;6.50;;;;;;;;;;10569260;28;20538;-71
2021/03/30 20:36:46;;;;;;;17.30;8.50;;;;;;;;;;10565478;28;20227;-70
2021/03/30 20:41:47;;;;;;;17.37;9.43;;;;;;;;;;10570669;28;20279;-70
2021/03/30 20:46:50;;;;;;;16.27;7.30;;;;;;;;;;10563606;28;20229;-70
2021/03/30 20:51:51;;;;;;;13.60;6.37;;;;;;;;;;10578118;27;20203;-71
2021/03/30 20:56:53;;;;;;;12.90;6.33;;;;;;;;;;10576611;27;20824;-71
2021/03/30 21:01:55;;;;;;;15.47;5.90;;;;;;;;;;10575425;27;20564;-69
2021/03/30 21:06:57;;;;;;;13.43;6.20;;;;;;;;;;10572152;27;20712;-67
2021/03/30 21:11:59;;;;;;;13.50;6.10;;;;;;;;;;10545677;28;20202;-67
2021/03/30 21:17:03;;;;;;;14.00;6.80;;;;;;;;;;10572445;27;20218;-70
2021/03/30 21:22:05;;;;;;;12.13;6.33;;;;;;;;;;10574733;27;20236;-70
2021/03/30 21:27:07;;;;;;;13.70;6.53;;;;;;;;;;10565056;27;20218;-70
2021/03/30 21:32:10;;;;;;;12.03;6.43;;;;;;;;;;10579613;27;20257;-69
2021/03/30 21:37:11;;;;;;;12.53;6.30;;;;;;;;;;10584657;27;20256;-71
2021/03/30 21:42:13;;;;;;;14.27;6.27;;;;;;;;;;10584902;27;20260;-69
2021/03/30 21:47:15;;;;;;;13.00;6.40;;;;;;;;;;10574058;27;20226;-69
2021/03/30 21:52:17;;;;;;;13.30;6.70;;;;;;;;;;10562657;27;20222;-67
2021/03/30 21:57:19;;;;;;;14.67;7.60;;;;;;;;;;10574434;27;20198;-70
2021/03/30 22:02:21;;;;;;;14.33;6.17;;;;;;;;;;10571263;27;20203;-70
2021/03/30 22:07:23;;;;;;;12.40;6.47;;;;;;;;;;10577838;27;20210;-69
2021/03/30 22:12:25;;;;;;;13.33;6.60;;;;;;;;;;10556161;27;20203;-69
2021/03/30 22:17:27;;;;;;;13.23;6.00;;;;;;;;;;10584514;27;20190;-70
2021/03/30 22:22:29;;;;;;;13.20;6.20;;;;;;;;;;10581021;27;20187;-69
2021/03/30 22:27:31;;;;;;;14.50;5.90;;;;;;;;;;10575092;27;20704;-70
2021/03/30 22:32:51;;;;;;;13.30;5.83;;;;;;;;;;10562375;27;20397;-71
2021/03/30 22:37:52;;;;;;;13.80;6.13;;;;;;;;;;10577582;27;20279;-69
2021/03/30 22:42:54;;;;;;;13.77;6.60;;;;;;;;;;10555263;27;20647;-71
2021/03/30 22:47:57;;;;;;;13.57;5.90;;;;;;;;;;10579801;27;20267;-70
2021/03/30 22:52:58;;;;;;;11.90;6.17;;;;;;;;;;10581290;27;20297;-70
2021/03/30 22:58:04;;;;;;;14.23;6.23;;;;;;;;;;10552369;27;20195;-70
2021/03/30 23:03:07;;;;;;;12.57;5.73;;;;;;;;;;10569932;27;20226;-69
2021/03/30 23:08:09;;;;;;;12.43;6.30;;;;;;;;;;10578798;27;20258;-70
2021/03/30 23:13:11;;;;;;;12.87;5.70;;;;;;;;;;10569617;27;20681;-70
2021/03/30 23:18:13;;;;;;;11.80;5.13;;;;;;;;;;10571711;27;20237;-70
2021/03/30 23:23:15;;;;;;;12.10;5.63;;;;;;;;;;10557255;27;20321;-70
2021/03/30 23:28:17;;;;;;;11.37;5.87;;;;;;;;;;10565562;27;20235;-70
2021/03/30 23:33:19;;;;;;;15.57;6.43;;;;;;;;;;10566831;27;20272;-71
2021/03/30 23:38:21;;;;;;;11.97;5.80;;;;;;;;;;10583437;27;20195;-70
2021/03/30 23:43:23;;;;;;;12.83;5.67;;;;;;;;;;10578657;27;20629;-70
2021/03/30 23:48:25;;;;;;;13.27;6.27;;;;;;;;;;10582468;27;20203;-69
2021/03/30 23:53:28;;;;;;;14.17;6.03;;;;;;;;;;10580337;27;20203;-70
2021/03/30 23:58:30;;;;;;;12.20;5.70;;;;;;;;;;10576035;27;20189;-71
